Time;durP1;ratioP1;P1;durP2;ratioP2;P2;SDS_P1;SDS_P2;PMS_P1;PMS_P2;Temp;Humidity;BMP_temperature;BMP_pressure;BME280_temperature;BME280_humidity;BME280_pressure;Samples;Min_cycle;Max_cycle;Signal;HPM_P1;HPM_P2
2022/05/15 06:41:49;;;;;;;9.25;5.07;;;;;;;21.17;41.36;98552.75;5055154;27;20214;-81
2022/05/15 06:44:16;;;;;;;6.20;4.32;;;;;;;26.51;30.83;98558.59;5051496;28;20443;-81
2022/05/15 06:46:42;;;;;;;8.73;4.55;;;;;;;28.30;27.35;98560.53;5053309;28;20040;-82
2022/05/15 06:49:08;;;;;;;11.27;5.78;;;;;;;30.01;25.05;98554.97;5050958;28;20033;-81
2022/05/15 06:51:34;;;;;;;8.38;4.65;;;;;;;30.90;23.33;98558.69;5039894;28;20039;-82
2022/05/15 06:54:00;;;;;;;8.25;5.25;;;;;;;31.51;22.63;98548.38;5036044;28;20381;-81
2022/05/15 06:59:11;;;;;;;5.10;3.70;;;;;;;32.47;21.16;98557.63;5039529;28;20111;-80
2022/05/15 07:01:37;;;;;;;6.35;4.18;;;;;;;32.06;20.47;98549.88;5031753;28;20040;-82
2022/05/15 07:04:04;;;;;;;9.15;4.35;;;;;;;32.05;20.24;98554.78;5036190;28;20090;-81
2022/05/15 07:06:30;;;;;;;7.18;3.90;;;;;;;32.06;19.71;98547.84;5039928;28;20485;-81
2022/05/15 07:08:57;;;;;;;6.72;3.25;;;;;;;32.34;19.97;98554.22;5031678;28;20041;-80
2022/05/15 07:11:23;;;;;;;5.70;3.08;;;;;;;32.00;20.39;98548.94;5040024;28;20136;-81
2022/05/15 07:13:49;;;;;;;4.38;3.08;;;;;;;32.17;20.78;98553.00;5035842;28;20045;-81
2022/05/15 07:16:15;;;;;;;5.68;3.08;;;;;;;32.39;20.72;98556.41;5033593;28;20060;-81
2022/05/15 07:18:41;;;;;;;4.88;2.85;;;;;;;33.16;19.66;98559.50;5034923;28;20095;-81
2022/05/15 07:21:08;;;;;;;3.83;2.38;;;;;;;33.38;19.27;98555.06;5033829;28;20095;-81
2022/05/15 07:23:34;;;;;;;4.75;3.10;;;;;;;32.77;20.76;98558.59;5034815;28;20129;-81
2022/05/15 07:26:01;;;;;;;8.02;2.88;;;;;;;32.32;19.65;98558.81;5036977;28;20022;-82
2022/05/15 07:28:27;;;;;;;4.40;3.00;;;;;;;31.85;20.50;98565.84;5042219;28;20040;-82
2022/05/15 07:30:53;;;;;;;8.43;3.33;;;;;;;31.69;21.04;98565.38;5042095;28;20034;-82
2022/05/15 07:33:25;;;;;;;6.38;3.65;;;;;;;31.69;20.53;98569.03;5040689;28;20033;-82
2022/05/15 07:35:54;;;;;;;8.35;3.15;;;;;;;31.72;20.50;98570.91;5038135;28;20101;-81
2022/05/15 07:38:21;;;;;;;6.20;2.83;;;;;;;32.29;20.20;98569.06;5039270;28;20036;-81
2022/05/15 07:40:47;;;;;;;5.68;3.08;;;;;;;32.12;20.44;98567.06;5053185;28;20139;-82
2022/05/15 07:43:14;;;;;;;5.10;3.20;;;;;;;32.55;19.96;98573.13;5057382;28;20488;-82
2022/05/15 07:45:40;;;;;;;6.18;3.13;;;;;;;33.03;19.87;98570.34;5059931;28;20032;-80
2022/05/15 07:48:07;;;;;;;4.60;2.03;;;;;;;33.33;20.09;98572.03;5066119;28;20037;-81
2022/05/15 07:50:38;;;;;;;7.55;3.15;;;;;;;32.72;18.91;98565.75;5062011;28;20052;-81
2022/05/15 07:53:06;;;;;;;;;;;;;;;32.51;19.14;98554.66;5043854;28;20021;-81
2022/05/15 07:55:32;;;;;;;8.50;2.63;;;;;;;32.70;19.83;98564.66;5043770;28;20324;-82
2022/05/15 07:57:58;;;;;;;5.68;2.38;;;;;;;32.19;19.98;98559.00;5045871;28;20040;-82
2022/05/15 08:00:26;;;;;;;6.75;3.15;;;;;;;31.67;21.09;98570.75;5046115;28;20052;-82
2022/05/15 08:03:04;;;;;;;2.78;2.00;;;;;;;32.31;20.14;98566.53;5045111;28;20056;-81
2022/05/15 08:08:15;;;;;;;7.03;3.05;;;;;;;33.33;18.54;98564.28;5046043;28;20035;-80
2022/05/15 08:10:44;;;;;;;11.00;3.65;;;;;;;32.58;19.18;98557.16;5050842;28;20452;-80
2022/05/15 08:13:12;;;;;;;6.03;3.08;;;;;;;32.84;19.03;98561.09;5046174;28;20036;-81
2022/05/15 08:15:40;;;;;;;5.60;3.58;;;;;;;32.40;19.52;98560.81;5034201;28;20041;-82
2022/05/15 08:23:40;;;;;;;5.55;2.28;;;;;;;33.11;18.64;98566.66;5053237;28;20055;-81
2022/05/15 08:26:06;;;;;;;4.57;2.00;;;;;;;33.36;18.25;98568.22;5048398;28;20117;-81
2022/05/15 08:28:36;;;;;;;4.90;2.63;;;;;;;32.43;19.50;98568.38;5044375;28;20455;-81
2022/05/15 08:31:02;;;;;;;4.63;2.55;;;;;;;31.61;19.84;98567.75;5049921;28;20040;-81
2022/05/15 08:33:30;;;;;;;4.13;2.33;;;;;;;32.26;19.66;98574.91;5046749;28;20485;-81
2022/05/15 08:35:57;;;;;;;4.85;2.13;;;;;;;32.54;19.67;98565.03;5026539;28;20605;-82
2022/05/15 08:38:23;;;;;;;8.82;2.95;;;;;;;31.44;20.01;98560.06;5048121;28;20036;-81
2022/05/15 08:41:17;;;;;;;5.93;2.88;;;;;;;33.00;19.81;98568.44;5031945;28;20056;-81
2022/05/15 08:43:51;;;;;;;4.30;1.77;;;;;;;33.93;17.71;98563.16;5031274;28;20078;-82
2022/05/15 08:46:46;;;;;;;4.07;2.40;;;;;;;34.05;17.68;98559.25;5046202;28;20037;-81
2022/05/15 08:49:19;;;;;;;5.45;3.08;;;;;;;33.26;18.01;98561.78;5028105;28;20384;-82
2022/05/15 08:52:02;;;;;;;4.00;2.08;;;;;;;32.10;19.78;98564.72;5043815;28;20041;-83
2022/05/15 08:54:29;;;;;;;5.97;2.15;;;;;;;31.89;20.09;98572.16;5050423;28;20103;-84
2022/05/15 08:56:56;;;;;;;3.33;2.50;;;;;;;32.27;19.00;98563.09;5046104;28;20033;-83
2022/05/15 08:59:38;;;;;;;5.57;2.03;;;;;;;32.51;19.00;98571.72;5050346;28;20032;-84
2022/05/15 09:02:05;;;;;;;4.43;2.13;;;;;;;32.40;19.09;98560.00;5028744;28;20044;-82
2022/05/15 09:04:35;;;;;;;6.53;2.63;;;;;;;32.85;18.33;98561.88;5045932;28;20509;-83
2022/05/15 09:07:09;;;;;;;6.88;2.53;;;;;;;33.04;18.68;98561.34;5032250;28;20037;-82
2022/05/15 09:10:25;;;;;;;5.07;2.20;;;;;;;33.75;18.75;98564.09;5031773;28;20049;-83
2022/05/15 09:13:07;;;;;;;6.32;3.60;;;;;;;33.12;18.69;98570.28;4964013;28;21706;-81
2022/05/15 09:15:37;;;;;;;6.38;2.90;;;;;;;33.32;19.35;98573.31;5010267;28;20053;-81
2022/05/15 09:18:05;;;;;;;4.40;2.20;;;;;;;33.82;18.38;98569.41;5033594;28;20037;-81
2022/05/15 09:20:47;;;;;;;5.80;2.20;;;;;;;34.33;18.29;98571.13;5049061;28;20086;-81
2022/05/15 09:23:34;;;;;;;4.93;1.95;;;;;;;34.32;17.74;98569.53;5048423;28;20032;-81
2022/05/15 09:26:25;;;;;;;11.30;2.92;;;;;;;33.18;18.09;98574.84;5046394;28;20028;-81
2022/05/15 09:29:01;;;;;;;3.20;2.03;;;;;;;32.61;18.55;98576.88;5046201;28;20024;-81
2022/05/15 09:31:42;;;;;;;5.07;1.65;;;;;;;32.63;18.87;98579.22;5048661;28;20033;-80
2022/05/15 09:34:21;;;;;;;5.15;1.73;;;;;;;32.25;19.56;98579.84;5040832;28;20033;-82
2022/05/15 09:36:49;;;;;;;7.05;1.92;;;;;;;32.65;18.58;98577.47;5056074;28;20032;-83
2022/05/15 09:39:46;;;;;;;4.78;1.85;;;;;;;32.14;18.89;98570.22;5044491;28;20037;-83
2022/05/15 09:45:16;;;;;;;3.80;1.60;;;;;;;31.94;19.28;98573.56;5041045;28;20043;-82
2022/05/15 09:48:05;;;;;;;3.92;1.60;;;;;;;31.80;20.07;98574.19;5035517;28;20056;-84
2022/05/15 09:50:49;;;;;;;1.88;1.30;;;;;;;32.90;18.51;98569.75;5032616;28;20049;-81
2022/05/15 09:53:28;;;;;;;5.20;2.08;;;;;;;33.07;17.91;98563.19;5036394;28;20033;-83
2022/05/15 09:56:07;;;;;;;5.22;1.38;;;;;;;33.16;17.54;98568.06;5013103;28;20863;-82
2022/05/15 09:58:44;;;;;;;6.97;1.50;;;;;;;33.11;17.17;98572.34;5019608;28;20028;-82
2022/05/15 10:01:18;;;;;;;10.75;1.77;;;;;;;33.13;16.98;98558.44;5033502;28;20041;-82
2022/05/15 10:03:49;;;;;;;4.30;1.10;;;;;;;33.72;17.37;98570.00;5024964;28;20381;-80
2022/05/15 10:06:19;;;;;;;2.25;1.08;;;;;;;32.89;18.12;98574.66;5041520;28;20033;-80
2022/05/15 10:08:46;;;;;;;2.83;1.30;;;;;;;33.59;17.75;98558.06;5049926;28;20036;-79
2022/05/15 10:11:18;;;;;;;4.35;1.13;;;;;;;33.57;17.53;98560.63;5032009;28;20116;-80
2022/05/15 10:13:50;;;;;;;5.22;1.30;;;;;;;34.95;16.80;98553.69;5043613;28;20091;-79
2022/05/15 10:16:22;;;;;;;5.25;1.55;;;;;;;34.87;16.86;98558.25;5047116;28;20041;-79
2022/05/15 10:18:54;;;;;;;4.82;1.40;;;;;;;34.12;17.50;98558.06;5038500;28;20041;-80
2022/05/15 10:21:22;;;;;;;4.32;1.63;;;;;;;33.11;17.88;98574.41;5044089;28;20032;-78
2022/05/15 10:24:04;;;;;;;3.20;1.27;;;;;;;32.35;18.86;98577.75;5039636;28;20104;-79
2022/05/15 10:27:10;;;;;;;3.47;1.08;;;;;;;32.78;18.54;98574.41;5039766;28;20043;-79
2022/05/15 10:29:47;;;;;;;6.25;1.20;;;;;;;33.49;16.74;98567.97;5040232;28;20082;-79
2022/05/15 10:32:22;;;;;;;3.03;1.65;;;;;;;34.15;16.97;98563.56;5038073;28;20082;-79
2022/05/15 10:34:48;;;;;;;3.30;1.17;;;;;;;34.69;17.73;98562.94;5040487;28;20040;-79
2022/05/15 10:37:41;;;;;;;2.72;0.90;;;;;;;33.18;17.46;98571.19;5024856;28;20136;-79
2022/05/15 10:40:43;;;;;;;2.22;1.05;;;;;;;33.24;17.20;98561.50;5034438;28;20049;-79
2022/05/15 10:43:28;;;;;;;3.47;1.20;;;;;;;33.99;16.48;98559.13;5035356;28;20472;-81
2022/05/15 10:46:07;;;;;;;3.17;1.00;;;;;;;33.68;17.06;98558.78;5039426;28;20067;-80
2022/05/15 10:49:01;;;;;;;2.13;1.00;;;;;;;32.11;18.04;98565.50;5038470;28;20036;-80
2022/05/15 10:51:38;;;;;;;2.83;1.10;;;;;;;32.37;18.06;98566.69;5036735;28;20110;-79
2022/05/15 10:57:21;;;;;;;4.38;1.45;;;;;;;33.71;16.11;98554.16;5043576;28;20035;-79
2022/05/15 10:59:53;;;;;;;4.95;1.33;;;;;;;33.78;16.96;98545.25;5038063;28;20040;-79
2022/05/15 11:02:58;;;;;;;4.47;1.10;;;;;;;33.46;16.42;98554.69;5038802;28;20029;-79
2022/05/15 11:05:28;;;;;;;3.65;1.00;;;;;;;34.02;15.29;98549.59;5039879;28;20040;-78
2022/05/15 11:08:16;;;;;;;4.68;1.08;;;;;;;32.68;16.67;98559.44;5038241;28;20037;-79
2022/05/15 11:11:01;;;;;;;3.70;1.25;;;;;;;31.75;17.87;98549.28;5041663;28;20505;-79
2022/05/15 11:13:47;;;;;;;3.35;1.15;;;;;;;31.47;18.54;98554.19;5036758;28;20029;-77
2022/05/15 11:16:25;;;;;;;2.65;1.27;;;;;;;31.72;18.36;98551.00;5037873;28;20095;-77
2022/05/15 11:19:10;;;;;;;4.63;1.20;;;;;;;32.74;19.08;98553.91;5040886;28;20508;-78
2022/05/15 11:21:46;;;;;;;3.55;1.05;;;;;;;33.83;16.45;98541.72;5039821;28;20037;-77
2022/05/15 11:24:29;;;;;;;4.43;1.45;;;;;;;33.37;16.08;98533.53;5043060;28;20125;-76
2022/05/15 11:27:05;;;;;;;3.58;1.17;;;;;;;33.33;16.92;98552.88;5041065;28;20028;-78
2022/05/15 11:29:37;;;;;;;1.48;0.80;;;;;;;34.12;15.20;98530.34;5027739;28;20040;-77
2022/05/15 11:32:29;;;;;;;2.05;0.82;;;;;;;34.19;15.41;98549.91;5042457;28;20068;-78
2022/05/15 11:35:11;;;;;;;2.00;1.10;;;;;;;33.26;16.27;98558.94;5041847;28;20033;-79
2022/05/15 11:37:45;;;;;;;3.65;1.35;;;;;;;31.96;17.00;98545.44;5050381;28;20125;-79
2022/05/15 11:40:28;;;;;;;2.25;0.82;;;;;;;33.03;17.20;98548.38;5044870;28;20500;-79
2022/05/15 11:42:55;;;;;;;4.47;1.17;;;;;;;33.08;16.33;98544.84;5040658;28;20033;-78
2022/05/15 11:45:37;;;;;;;2.78;1.05;;;;;;;32.86;16.95;98547.16;5049290;28;20040;-79
2022/05/15 11:48:22;;;;;;;1.98;0.90;;;;;;;33.80;15.99;98531.28;5041220;28;20029;-78
2022/05/15 11:50:58;;;;;;;3.75;1.20;;;;;;;34.43;15.97;98538.34;5044651;28;20116;-79
2022/05/15 11:53:35;;;;;;;3.00;0.85;;;;;;;33.52;16.09;98542.13;5043745;28;20037;-77
2022/05/15 11:56:22;;;;;;;2.63;1.00;;;;;;;33.34;16.72;98545.94;5037435;28;20052;-78
2022/05/15 11:59:01;;;;;;;3.50;0.90;;;;;;;33.71;16.19;98542.78;5041467;28;20030;-78
2022/05/15 12:01:38;;;;;;;2.15;0.95;;;;;;;33.51;16.36;98536.94;5048126;28;20452;-78
2022/05/15 12:04:08;;;;;;;3.05;1.02;;;;;;;33.78;15.10;98531.00;5042222;28;20029;-78
2022/05/15 12:06:56;;;;;;;4.35;1.38;;;;;;;34.86;14.71;98525.28;5042012;28;20028;-77
2022/05/15 12:09:27;;;;;;;1.42;0.80;;;;;;;34.56;14.74;98524.59;5042689;28;20083;-77
2022/05/15 12:11:57;;;;;;;3.95;1.10;;;;;;;35.19;14.97;98526.56;5038766;28;20040;-77
2022/05/15 12:14:26;;;;;;;1.75;1.00;;;;;;;34.96;15.91;98526.72;5040297;28;20055;-77
2022/05/15 12:16:54;;;;;;;1.73;0.90;;;;;;;34.60;15.30;98534.53;5045138;28;20040;-78
2022/05/15 12:19:29;;;;;;;2.10;1.00;;;;;;;34.73;15.11;98525.63;5043886;28;20472;-78
2022/05/15 12:22:01;;;;;;;1.23;0.80;;;;;;;34.15;15.00;98520.00;5044284;28;20555;-77
2022/05/15 12:24:32;;;;;;;2.38;0.95;;;;;;;35.12;14.44;98514.78;5036362;28;20025;-77
2022/05/15 12:27:33;;;;;;;1.95;0.90;;;;;;;35.07;14.04;98498.34;5040092;28;20047;-77
2022/05/15 12:30:09;;;;;;;2.47;0.90;;;;;;;35.15;15.18;98508.84;4981879;28;20520;-77
2022/05/15 12:33:01;;;;;;;3.25;0.80;;;;;;;34.72;14.16;98504.88;5049166;28;20037;-77
2022/05/15 12:35:36;;;;;;;2.75;1.05;;;;;;;35.36;14.66;98509.59;5047085;28;20071;-77
2022/05/15 12:38:09;;;;;;;1.83;0.73;;;;;;;34.43;15.68;98519.19;5047620;28;20057;-77
2022/05/15 12:40:40;;;;;;;3.13;1.05;;;;;;;34.38;15.74;98511.31;5046727;28;20049;-78
2022/05/15 12:43:29;;;;;;;1.65;0.60;;;;;;;35.15;15.17;98505.97;5044728;28;20550;-78
2022/05/15 12:45:56;;;;;;;2.90;0.70;;;;;;;35.99;13.88;98504.84;5043407;28;20033;-78
2022/05/15 12:48:23;;;;;;;1.52;0.90;;;;;;;36.23;13.88;98502.47;5042918;28;20040;-77
2022/05/15 12:51:06;;;;;;;0.80;0.60;;;;;;;35.51;14.12;98498.13;5039973;28;20028;-77
2022/05/15 12:53:36;;;;;;;1.15;0.77;;;;;;;34.08;15.17;98504.88;5039027;28;20025;-79
2022/05/15 12:56:11;;;;;;;2.00;0.68;;;;;;;33.22;16.28;98507.13;5039907;28;20234;-77
2022/05/15 12:58:38;;;;;;;3.85;0.82;;;;;;;34.21;15.08;98507.44;5042949;28;20033;-80
2022/05/15 13:01:05;;;;;;;4.10;0.70;;;;;;;34.24;14.42;98508.53;5041589;28;20065;-80
2022/05/15 13:03:32;;;;;;;2.35;0.75;;;;;;;33.98;14.86;98506.22;5043980;28;20396;-81
2022/05/15 13:06:01;;;;;;;2.55;0.80;;;;;;;33.76;15.09;98499.38;5046541;28;20029;-80
2022/05/15 13:08:54;;;;;;;3.30;0.82;;;;;;;33.30;16.27;98502.59;5040322;28;20424;-80
2022/05/15 13:11:41;;;;;;;2.03;0.88;;;;;;;33.93;15.16;98484.16;5042434;28;20037;-80
2022/05/15 13:14:17;;;;;;;1.77;0.65;;;;;;;34.49;14.29;98482.22;5042139;28;20103;-81
2022/05/15 13:16:47;;;;;;;0.85;0.50;;;;;;;34.72;14.28;98484.91;5042880;28;20044;-81
2022/05/15 13:19:19;;;;;;;1.80;0.77;;;;;;;34.93;13.91;98482.06;5044699;28;20397;-81
2022/05/15 13:21:49;;;;;;;0.93;0.40;;;;;;;35.32;14.13;98491.91;5042223;28;20385;-81
2022/05/15 13:24:17;;;;;;;1.55;0.60;;;;;;;35.78;13.72;98483.34;5045129;28;20047;-81
2022/05/15 13:26:47;;;;;;;1.45;0.60;;;;;;;36.12;13.78;98493.00;5047445;28;20573;-81
2022/05/15 13:29:21;;;;;;;1.48;0.52;;;;;;;36.31;13.07;98472.13;5041550;28;20037;-81
2022/05/15 13:31:51;;;;;;;2.88;0.30;;;;;;;36.60;13.46;98479.59;5036433;28;20116;-80
2022/05/15 13:34:23;;;;;;;0.93;0.60;;;;;;;36.45;12.90;98476.94;5037866;28;20120;-81
2022/05/15 13:36:57;;;;;;;1.05;0.40;;;;;;;37.00;13.46;98473.59;5044059;28;20029;-81
2022/05/15 13:45:18;;;;;;;0.95;0.50;;;;;;;37.18;13.33;98478.88;5040421;28;20124;-81
2022/05/15 13:48:01;;;;;;;1.00;0.45;;;;;;;37.11;12.74;98467.91;5042866;28;20139;-81
2022/05/15 13:50:44;;;;;;;0.70;0.70;;;;;;;36.78;13.27;98481.28;5040975;28;20040;-81
2022/05/15 13:53:30;;;;;;;0.88;0.50;;;;;;;36.70;12.45;98475.25;5037736;28;20044;-81
2022/05/15 13:55:58;;;;;;;0.77;0.28;;;;;;;36.15;12.88;98466.28;5042373;28;20120;-81
2022/05/15 13:58:44;;;;;;;1.02;0.32;;;;;;;35.96;12.36;98471.56;5025078;28;20040;-78
2022/05/15 14:01:24;;;;;;;0.93;0.40;;;;;;;34.75;13.84;98472.47;5040354;28;20475;-78
2022/05/15 14:03:51;;;;;;;1.00;0.35;;;;;;;35.02;13.69;98468.47;5039922;28;20071;-78
2022/05/15 14:06:32;;;;;;;0.45;0.30;;;;;;;35.65;13.71;98460.88;5033445;28;20037;-78
2022/05/15 14:09:08;;;;;;;0.50;0.30;;;;;;;35.56;13.39;98463.91;5043218;28;20031;-79
2022/05/15 14:11:57;;;;;;;1.00;0.32;;;;;;;35.58;13.10;98464.19;5042713;28;20044;-79
2022/05/15 14:14:48;;;;;;;0.40;0.38;;;;;;;35.26;13.47;98456.81;5041435;28;20099;-80
2022/05/15 14:17:19;;;;;;;1.48;0.40;;;;;;;36.19;13.36;98458.22;5042839;28;20394;-79
2022/05/15 14:19:55;;;;;;;2.30;0.38;;;;;;;36.27;12.97;98456.50;5037716;28;20115;-79
2022/05/15 14:22:22;;;;;;;1.20;0.52;;;;;;;36.34;12.61;98453.91;5039546;28;20116;-79
2022/05/15 14:24:48;;;;;;;3.10;0.65;;;;;;;35.64;12.85;98453.56;5041867;28;20094;-80
2022/05/15 14:27:16;;;;;;;3.83;0.75;;;;;;;35.56;12.73;98449.63;5030307;28;20087;-80
2022/05/15 14:29:46;;;;;;;1.25;0.50;;;;;;;35.83;13.15;98451.94;5038230;28;20041;-79
2022/05/15 14:32:18;;;;;;;0.88;0.57;;;;;;;35.48;13.00;98447.66;5041665;28;20055;-79
2022/05/15 14:34:44;;;;;;;0.57;0.30;;;;;;;35.13;14.05;98450.66;5042423;28;20025;-80
2022/05/15 14:37:10;;;;;;;0.73;0.50;;;;;;;34.79;13.47;98442.97;5041956;28;20021;-79
2022/05/15 14:39:37;;;;;;;1.98;0.60;;;;;;;33.92;14.38;98427.63;5040329;28;20037;-80
2022/05/15 14:42:04;;;;;;;0.65;0.32;;;;;;;35.23;13.51;98432.09;5043218;28;20024;-79
2022/05/15 14:44:30;;;;;;;2.58;0.55;;;;;;;36.15;13.46;98446.25;5046128;28;20116;-79
2022/05/15 14:46:57;;;;;;;0.68;0.45;;;;;;;35.52;13.00;98434.78;5042448;28;20044;-80
2022/05/15 14:49:26;;;;;;;1.23;0.52;;;;;;;35.73;13.25;98449.78;5039465;28;20064;-80
2022/05/15 14:51:53;;;;;;;0.30;0.25;;;;;;;35.71;12.79;98432.38;5042349;28;20059;-79
2022/05/15 14:54:21;;;;;;;0.85;0.25;;;;;;;35.94;12.67;98442.69;5041882;28;20056;-79
2022/05/15 14:56:47;;;;;;;0.35;0.30;;;;;;;36.71;12.77;98436.75;5037779;28;20037;-79
2022/05/15 14:59:17;;;;;;;1.55;0.50;;;;;;;36.99;12.15;98429.09;5046373;28;20032;-79
2022/05/15 15:01:43;;;;;;;0.50;0.40;;;;;;;37.14;12.20;98435.38;5039415;28;20120;-79
2022/05/15 15:04:10;;;;;;;0.30;0.30;;;;;;;37.06;12.66;98437.16;5027455;28;20026;-79
2022/05/15 15:06:37;;;;;;;0.60;0.50;;;;;;;37.09;12.53;98430.41;5044723;28;20033;-79
2022/05/15 15:09:06;;;;;;;2.05;0.40;;;;;;;37.28;12.13;98436.47;5043443;28;20115;-79
2022/05/15 15:11:34;;;;;;;0.35;0.32;;;;;;;37.57;11.89;98427.44;5045498;28;20435;-79
2022/05/15 15:14:07;;;;;;;0.65;0.25;;;;;;;37.57;11.82;98436.03;5044586;28;20467;-79
2022/05/15 15:16:38;;;;;;;0.20;0.20;;;;;;;37.20;12.31;98429.69;5042160;28;20030;-79
2022/05/15 15:19:04;;;;;;;0.63;0.35;;;;;;;37.38;11.93;98423.50;5042065;28;20570;-79
2022/05/15 15:21:31;;;;;;;1.85;0.30;;;;;;;37.64;11.76;98423.28;5049431;28;20060;-79
2022/05/15 15:23:58;;;;;;;0.20;0.20;;;;;;;37.73;11.63;98423.81;5043896;28;20029;-79
2022/05/15 15:26:25;;;;;;;0.50;0.30;;;;;;;37.74;12.00;98433.94;5045990;28;20397;-79
2022/05/15 15:28:51;;;;;;;0.60;0.20;;;;;;;36.87;12.11;98429.53;5041942;28;20057;-79
2022/05/15 15:31:24;;;;;;;0.88;0.30;;;;;;;36.88;12.54;98425.34;5041965;28;20033;-79
2022/05/15 15:33:50;;;;;;;0.88;0.40;;;;;;;36.80;12.66;98427.16;5048367;28;20462;-78
2022/05/15 15:36:16;;;;;;;0.82;0.30;;;;;;;36.98;12.26;98423.88;5046637;28;20039;-83
2022/05/15 15:38:42;;;;;;;0.43;0.20;;;;;;;37.57;12.11;98421.72;5044465;28;20120;-82
2022/05/15 15:41:12;;;;;;;0.47;0.30;;;;;;;37.72;11.37;98416.50;5042877;28;20053;-80
2022/05/15 15:43:41;;;;;;;1.17;0.40;;;;;;;37.46;12.01;98410.22;5047180;28;20396;-79
2022/05/15 15:46:10;;;;;;;0.20;0.13;;;;;;;37.36;12.22;98418.28;5047548;28;20051;-79
2022/05/15 15:48:37;;;;;;;1.27;0.68;;;;;;;37.21;12.24;98420.56;5044841;28;20040;-78
2022/05/15 15:51:26;;;;;;;0.43;0.43;;;;;;;37.35;11.97;98422.41;5041152;28;20036;-78
2022/05/15 15:53:55;;;;;;;0.52;0.22;;;;;;;37.61;11.88;98405.03;5047390;28;20043;-80
2022/05/15 15:56:24;;;;;;;0.52;0.30;;;;;;;37.62;11.80;98403.75;5047020;28;20493;-80
2022/05/15 15:58:52;;;;;;;1.05;0.40;;;;;;;37.51;11.67;98418.03;5045430;28;20080;-81
2022/05/15 16:01:20;;;;;;;1.05;0.30;;;;;;;37.40;12.24;98409.44;5042092;28;20124;-80
2022/05/15 16:03:46;;;;;;;1.27;0.30;;;;;;;37.61;12.36;98412.84;5039024;28;22901;-79
2022/05/15 16:06:14;;;;;;;0.70;0.30;;;;;;;37.83;12.40;98415.75;5039383;28;20044;-79
2022/05/15 16:08:40;;;;;;;2.58;0.47;;;;;;;37.62;11.43;98412.34;5029706;28;20039;-78
2022/05/15 16:11:07;;;;;;;1.35;0.50;;;;;;;37.72;11.41;98410.75;5053298;28;20484;-78
2022/05/15 16:13:33;;;;;;;0.52;0.20;;;;;;;37.59;11.62;98421.97;5043780;28;20485;-79
2022/05/15 16:15:59;;;;;;;0.35;0.30;;;;;;;37.42;11.78;98424.03;5044953;28;20480;-78
2022/05/15 16:18:27;;;;;;;0.85;0.25;;;;;;;37.52;11.34;98418.81;5042744;28;20031;-78
2022/05/15 16:21:02;;;;;;;0.80;0.30;;;;;;;37.50;11.80;98415.69;5046262;28;20041;-78
2022/05/15 16:23:30;;;;;;;0.52;0.30;;;;;;;37.38;11.48;98406.31;5041126;28;20041;-78
2022/05/15 16:26:02;;;;;;;1.58;0.30;;;;;;;37.19;12.38;98416.66;5041273;28;20488;-78
2022/05/15 16:28:29;;;;;;;0.50;0.40;;;;;;;36.85;11.10;98409.22;5039194;28;20040;-78
2022/05/15 16:31:00;;;;;;;0.60;0.32;;;;;;;36.80;12.11;98421.44;5044974;28;20017;-78
2022/05/15 16:33:26;;;;;;;0.50;0.30;;;;;;;37.20;11.51;98419.00;5039391;28;20083;-78
2022/05/15 16:35:52;;;;;;;0.30;0.30;;;;;;;37.41;11.66;98418.81;5036354;28;20079;-78
2022/05/15 16:38:18;;;;;;;0.70;0.22;;;;;;;37.44;11.22;98412.06;5044834;28;20037;-77
2022/05/15 16:40:45;;;;;;;1.05;0.32;;;;;;;37.52;11.40;98419.63;5041274;28;20057;-77
2022/05/15 16:43:13;;;;;;;0.52;0.20;;;;;;;37.58;11.33;98416.75;5039838;28;20079;-79
2022/05/15 16:45:39;;;;;;;0.45;0.30;;;;;;;37.23;11.39;98417.97;5040745;28;20080;-79
2022/05/15 16:48:05;;;;;;;0.45;0.30;;;;;;;37.39;11.36;98425.84;5040175;28;20036;-79
2022/05/15 16:50:31;;;;;;;1.27;0.40;;;;;;;37.56;11.07;98413.63;5038827;28;20041;-78
2022/05/15 16:52:58;;;;;;;1.02;0.40;;;;;;;37.51;11.23;98418.03;5041543;28;20037;-79
2022/05/15 16:55:28;;;;;;;1.17;0.40;;;;;;;37.88;11.50;98420.72;5036927;28;20800;-80
2022/05/15 16:57:55;;;;;;;0.63;0.32;;;;;;;38.12;10.78;98420.94;5036203;28;20799;-78
2022/05/15 17:00:21;;;;;;;1.85;0.63;;;;;;;38.19;10.78;98422.50;5036552;28;20129;-77
2022/05/15 17:02:49;;;;;;;0.47;0.25;;;;;;;37.96;10.55;98411.06;5041231;28;20087;-77
2022/05/15 17:05:18;;;;;;;0.90;0.35;;;;;;;37.86;11.68;98417.56;5040914;28;20055;-77
2022/05/15 17:07:45;;;;;;;0.77;0.37;;;;;;;37.76;11.26;98424.84;5040881;28;20044;-77
2022/05/15 17:10:12;;;;;;;0.32;0.30;;;;;;;37.94;11.25;98415.75;5036055;28;20079;-77
2022/05/15 17:12:38;;;;;;;1.02;0.40;;;;;;;38.19;11.34;98423.28;5040251;28;20040;-78
2022/05/15 17:15:06;;;;;;;0.40;0.20;;;;;;;38.54;11.14;98423.50;5042647;28;20112;-78
2022/05/15 17:17:33;;;;;;;3.75;0.65;;;;;;;38.40;11.15;98418.84;5040313;28;20037;-77
2022/05/15 17:19:59;;;;;;;1.75;0.40;;;;;;;38.03;10.97;98415.47;5044870;28;20115;-77
2022/05/15 17:22:25;;;;;;;0.82;0.28;;;;;;;38.02;11.07;98420.44;5040723;28;20040;-77
2022/05/15 17:24:51;;;;;;;1.05;0.30;;;;;;;38.11;10.88;98419.41;5042564;28;20116;-77
2022/05/15 17:27:17;;;;;;;3.50;0.40;;;;;;;38.21;10.92;98414.16;5039621;28;20033;-78
2022/05/15 17:35:15;;;;;;;1.05;0.30;;;;;;;37.98;11.71;98422.00;5039694;28;20095;-77
2022/05/15 17:37:42;;;;;;;3.03;0.43;;;;;;;37.97;11.79;98423.31;5039367;28;20037;-77
2022/05/15 17:40:16;;;;;;;1.08;0.30;;;;;;;38.07;11.70;98424.59;5043023;28;20049;-77
2022/05/15 17:42:42;;;;;;;2.30;0.40;;;;;;;38.11;11.44;98432.94;5041335;28;20037;-78
2022/05/15 17:45:11;;;;;;;0.80;0.30;;;;;;;37.98;11.42;98436.34;5039814;28;20496;-78
2022/05/15 17:47:38;;;;;;;3.28;0.40;;;;;;;37.77;11.44;98432.13;5041868;28;20099;-80
2022/05/15 17:50:05;;;;;;;0.40;0.20;;;;;;;37.52;11.84;98425.34;5040955;28;20095;-80
2022/05/15 17:52:32;;;;;;;0.45;0.40;;;;;;;37.16;12.20;98438.50;5037810;28;20033;-80
2022/05/15 17:54:58;;;;;;;2.25;0.30;;;;;;;36.91;12.05;98433.75;5039665;28;20488;-79
2022/05/15 17:57:24;;;;;;;0.85;0.40;;;;;;;36.62;12.26;98437.72;5032775;28;20041;-80
2022/05/15 17:59:50;;;;;;;1.27;0.38;;;;;;;36.32;12.46;98438.56;5045199;28;20405;-80
2022/05/15 18:02:16;;;;;;;1.00;0.30;;;;;;;36.08;12.71;98443.88;5043732;28;20033;-82
2022/05/15 18:04:42;;;;;;;0.60;0.40;;;;;;;35.88;13.01;98442.63;5041332;28;20048;-82
2022/05/15 18:07:08;;;;;;;0.98;0.30;;;;;;;35.72;12.88;98445.34;5037291;28;20033;-82
2022/05/15 18:09:38;;;;;;;2.05;0.32;;;;;;;35.54;13.14;98446.50;5041638;28;20075;-82
2022/05/15 18:12:09;;;;;;;2.10;0.30;;;;;;;35.29;13.24;98438.66;5044078;28;20093;-82
2022/05/15 18:14:37;;;;;;;1.38;0.25;;;;;;;35.13;13.14;98448.59;5033682;28;20033;-82
2022/05/15 18:17:05;;;;;;;3.25;0.40;;;;;;;34.97;13.19;98449.16;5039032;28;20025;-82
2022/05/15 18:19:32;;;;;;;3.95;0.32;;;;;;;34.83;13.52;98455.72;5054850;28;20042;-82
2022/05/15 18:21:58;;;;;;;2.05;0.40;;;;;;;34.74;13.52;98465.22;5041391;28;20124;-82
2022/05/15 18:24:24;;;;;;;3.28;0.40;;;;;;;34.66;14.05;98460.41;5041201;28;20033;-82
2022/05/15 18:26:50;;;;;;;1.63;0.60;;;;;;;34.46;14.21;98460.38;5038443;28;20033;-82
2022/05/15 18:29:17;;;;;;;1.75;0.30;;;;;;;34.31;14.43;98465.34;5039284;28;20025;-83
2022/05/15 18:31:43;;;;;;;2.25;0.30;;;;;;;34.02;14.72;98466.16;5040834;28;20124;-83
2022/05/15 18:34:11;;;;;;;4.00;0.43;;;;;;;33.92;14.45;98468.31;5042074;28;20033;-81
2022/05/15 18:36:39;;;;;;;0.70;0.30;;;;;;;33.76;14.24;98465.97;5037303;28;20411;-81
2022/05/15 18:39:06;;;;;;;0.85;0.30;;;;;;;33.76;14.10;98459.50;5040515;28;20045;-81
2022/05/15 18:41:41;;;;;;;0.65;0.30;;;;;;;33.73;14.09;98471.84;5038522;28;20106;-81
2022/05/15 18:44:08;;;;;;;0.52;0.30;;;;;;;33.69;14.44;98474.91;5024922;28;20413;-81
2022/05/15 18:46:34;;;;;;;0.55;0.30;;;;;;;33.56;14.84;98474.41;5038865;28;20127;-81
2022/05/15 18:49:00;;;;;;;1.30;0.30;;;;;;;32.36;16.54;98491.19;5026554;28;20037;-81
2022/05/15 18:56:57;;;;;;;1.85;0.50;;;;;;;31.83;16.56;98502.25;5040642;28;20518;-80
2022/05/15 18:59:23;;;;;;;0.90;0.40;;;;;;;32.03;16.20;98502.53;5039504;28;20235;-79
2022/05/15 19:01:49;;;;;;;1.42;0.52;;;;;;;32.33;16.17;98501.47;5039177;28;20124;-80
2022/05/15 19:04:18;;;;;;;1.10;0.38;;;;;;;32.15;16.34;98506.44;5038575;28;20044;-80
2022/05/15 19:06:44;;;;;;;0.60;0.47;;;;;;;31.87;16.82;98506.50;5040886;28;20029;-80
2022/05/15 19:09:10;;;;;;;3.13;0.63;;;;;;;31.63;17.27;98502.75;5040909;28;20373;-80
2022/05/15 19:11:37;;;;;;;2.40;0.40;;;;;;;31.45;17.20;98510.50;5026551;28;20048;-81